Time;durP1;ratioP1;P1;durP2;ratioP2;P2;SDS_P1;SDS_P2;PMS_P1;PMS_P2;Temp;Humidity;BMP_temperature;BMP_pressure;BME280_temperature;BME280_humidity;BME280_pressure;Samples;Min_cycle;Max_cycle;Signal;HPM_P1;HPM_P2
2022/04/15 00:01:20;;;;;;;10.30;4.93;;;9.10;99.90;;;;;;5071411;28;20051;-55
2022/04/15 00:03:46;;;;;;;10.00;4.50;;;9.20;99.90;;;;;;5070229;28;20052;-54
2022/04/15 00:06:12;;;;;;;8.77;5.38;;;9.20;99.90;;;;;;5071307;28;20048;-54
2022/04/15 00:08:38;;;;;;;18.10;5.97;;;9.20;99.90;;;;;;5069937;28;20075;-55
2022/04/15 00:11:04;;;;;;;11.43;5.00;;;9.20;99.90;;;;;;5070822;28;20116;-55
2022/04/15 00:13:32;;;;;;;9.75;5.47;;;9.20;99.90;;;;;;5071409;28;20047;-56
2022/04/15 00:16:04;;;;;;;10.88;5.28;;;9.20;99.90;;;;;;5070438;28;20060;-55
2022/04/15 00:18:31;;;;;;;12.80;5.75;;;9.20;99.90;;;;;;5069940;28;20480;-56
2022/04/15 00:20:57;;;;;;;11.48;5.70;;;9.30;99.90;;;;;;5070792;28;20056;-55
2022/04/15 00:23:22;;;;;;;9.23;5.47;;;9.20;99.90;;;;;;5070104;28;20543;-56
2022/04/15 00:25:49;;;;;;;10.18;5.43;;;9.30;99.90;;;;;;5069338;28;20114;-55
2022/04/15 00:28:15;;;;;;;13.00;5.38;;;9.30;99.90;;;;;;5069796;28;20078;-55
2022/04/15 00:30:41;;;;;;;10.68;5.32;;;9.20;99.90;;;;;;5070641;28;20045;-55
2022/04/15 00:33:06;;;;;;;11.98;5.38;;;9.20;99.90;;;;;;5069667;28;20052;-55
2022/04/15 00:35:32;;;;;;;11.43;5.18;;;9.30;99.90;;;;;;5069778;28;20367;-55
2022/04/15 00:37:58;;;;;;;10.50;4.28;;;9.20;99.90;;;;;;5069354;28;20064;-54
2022/04/15 00:40:24;;;;;;;7.55;4.20;;;9.20;99.90;;;;;;5069680;28;20048;-54
2022/04/15 00:42:49;;;;;;;8.45;4.32;;;9.20;99.90;;;;;;5069341;28;20500;-55
2022/04/15 00:45:15;;;;;;;13.65;4.20;;;9.20;99.90;;;;;;5069748;28;20049;-55
2022/04/15 00:47:55;;;;;;;8.57;4.13;;;9.20;99.90;;;;;;5070193;28;20133;-55
2022/04/15 00:50:26;;;;;;;9.25;4.15;;;9.20;99.90;;;;;;5053025;28;20135;-56
2022/04/15 00:52:54;;;;;;;6.70;4.00;;;9.20;99.90;;;;;;5069424;28;20036;-57
2022/04/15 00:55:22;;;;;;;10.63;4.30;;;9.20;99.90;;;;;;5070732;28;20048;-55
2022/04/15 00:57:52;;;;;;;14.55;4.40;;;9.20;99.90;;;;;;5070366;28;20102;-58
2022/04/15 01:00:19;;;;;;;8.13;3.90;;;9.20;99.90;;;;;;5069715;28;20048;-55
2022/04/15 01:02:46;;;;;;;6.28;4.00;;;9.20;99.90;;;;;;5052337;28;20053;-54
2022/04/15 01:05:13;;;;;;;7.90;3.90;;;9.20;99.90;;;;;;5069569;28;20053;-51
2022/04/15 01:07:46;;;;;;;9.35;3.78;;;9.10;99.90;;;;;;5069180;28;20040;-61
2022/04/15 01:10:13;;;;;;;7.00;4.07;;;9.20;99.90;;;;;;5052344;28;20400;-55
2022/04/15 01:12:43;;;;;;;7.10;3.80;;;9.10;99.90;;;;;;5070517;28;20448;-60
2022/04/15 01:15:12;;;;;;;7.20;3.58;;;9.10;99.90;;;;;;5070480;28;20052;-54
2022/04/15 01:17:37;;;;;;;9.75;4.00;;;9.00;99.90;;;;;;5070682;28;20056;-55
2022/04/15 01:20:09;;;;;;;9.15;3.70;;;9.10;99.90;;;;;;5070410;28;20394;-55
2022/04/15 01:22:46;;;;;;;8.00;3.72;;;9.10;99.90;;;;;;5070391;28;20109;-51
2022/04/15 01:25:14;;;;;;;6.45;3.85;;;9.10;99.90;;;;;;5073272;28;20045;-54
2022/04/15 01:27:43;;;;;;;6.82;3.45;;;9.20;99.90;;;;;;5073343;28;20573;-54
2022/04/15 01:30:14;;;;;;;8.55;4.28;;;9.20;99.90;;;;;;5074010;28;20057;-54
2022/04/15 01:32:40;;;;;;;8.45;3.95;;;9.20;99.90;;;;;;5072737;28;20056;-54
2022/04/15 01:35:08;;;;;;;8.93;4.18;;;9.20;99.90;;;;;;5074037;28;20048;-54
2022/04/15 01:37:36;;;;;;;14.38;4.93;;;9.20;99.90;;;;;;5074202;28;20398;-52
2022/04/15 01:40:07;;;;;;;11.88;4.60;;;9.10;99.90;;;;;;5056291;28;20048;-55
2022/04/15 01:42:33;;;;;;;9.50;3.97;;;9.20;99.90;;;;;;5074187;28;20347;-56
2022/04/15 01:44:59;;;;;;;11.55;4.70;;;9.10;99.90;;;;;;5073787;28;20075;-54
2022/04/15 01:47:25;;;;;;;10.30;4.13;;;9.10;99.90;;;;;;5073020;28;20489;-54
2022/04/15 01:49:51;;;;;;;13.27;4.68;;;9.10;99.90;;;;;;5073826;28;20050;-55
2022/04/15 01:52:17;;;;;;;12.98;4.78;;;9.10;99.90;;;;;;5073839;28;20385;-53
2022/04/15 01:54:43;;;;;;;14.00;4.47;;;9.10;99.90;;;;;;5072690;28;20390;-53
2022/04/15 01:57:08;;;;;;;12.80;4.45;;;9.10;99.90;;;;;;5039159;28;20492;-53
2022/04/15 01:59:34;;;;;;;12.80;5.70;;;9.10;99.90;;;;;;5073674;28;20044;-54
2022/04/15 02:02:00;;;;;;;13.30;5.35;;;9.10;99.90;;;;;;5073384;28;20048;-55
2022/04/15 02:04:26;;;;;;;14.38;5.78;;;9.10;99.90;;;;;;5073626;28;20486;-53
2022/04/15 02:06:53;;;;;;;12.80;5.93;;;9.10;99.90;;;;;;5055579;28;20075;-54
2022/04/15 02:09:19;;;;;;;12.00;5.60;;;9.10;99.90;;;;;;5073205;28;20379;-56
2022/04/15 02:11:45;;;;;;;16.17;6.40;;;9.10;99.90;;;;;;5072419;28;20052;-56
2022/04/15 02:14:16;;;;;;;13.70;6.25;;;9.10;99.90;;;;;;5072941;28;20041;-54
2022/04/15 02:16:43;;;;;;;13.68;6.72;;;9.10;99.90;;;;;;5073521;28;20142;-53
2022/04/15 02:19:09;;;;;;;17.35;6.50;;;9.10;99.90;;;;;;5072818;28;20048;-53
2022/04/15 02:21:34;;;;;;;16.00;5.93;;;9.10;99.90;;;;;;5072218;28;20394;-54
2022/04/15 02:24:00;;;;;;;19.55;6.65;;;9.10;99.90;;;;;;5071494;28;20045;-52
2022/04/15 02:26:26;;;;;;;16.48;6.70;;;9.10;99.90;;;;;;5071853;28;20446;-52
2022/04/15 02:28:52;;;;;;;16.95;6.50;;;9.00;99.90;;;;;;5072743;28;20047;-59
2022/04/15 02:31:17;;;;;;;15.93;6.95;;;9.10;99.90;;;;;;5054951;28;20129;-54
2022/04/15 02:33:43;;;;;;;16.27;9.13;;;9.00;99.90;;;;;;5071076;28;20052;-54
2022/04/15 02:36:09;;;;;;;18.00;10.45;;;9.00;99.90;;;;;;5054226;28;20242;-53
2022/04/15 02:38:35;;;;;;;16.42;10.93;;;8.90;99.90;;;;;;5072101;28;20135;-62
2022/04/15 02:41:04;;;;;;;23.10;12.57;;;8.80;99.90;;;;;;5071001;28;20094;-61
2022/04/15 02:43:33;;;;;;;17.65;11.60;;;8.80;99.90;;;;;;5071361;28;20037;-61
2022/04/15 02:46:00;;;;;;;21.35;11.60;;;8.70;99.90;;;;;;5072186;28;20050;-61
2022/04/15 02:48:26;;;;;;;17.75;12.10;;;8.70;99.90;;;;;;5072205;28;20402;-61
2022/04/15 02:50:52;;;;;;;17.58;11.73;;;8.70;99.90;;;;;;5072584;28;20131;-62
2022/04/15 02:53:19;;;;;;;13.65;9.93;;;8.70;99.90;;;;;;5072320;28;20048;-62
2022/04/15 02:55:44;;;;;;;13.90;10.52;;;8.60;99.90;;;;;;5071297;28;20063;-61
2022/04/15 02:58:10;;;;;;;14.20;9.93;;;8.50;99.90;;;;;;5072029;28;20045;-63
2022/04/15 03:00:36;;;;;;;10.38;9.00;;;8.50;99.90;;;;;;5072483;28;20036;-61
2022/04/15 03:03:02;;;;;;;11.20;7.20;;;8.50;99.90;;;;;;5070860;28;20048;-62
2022/04/15 03:05:28;;;;;;;12.63;7.30;;;8.40;99.90;;;;;;5072390;28;20131;-62
2022/04/15 03:07:55;;;;;;;9.30;6.35;;;8.50;99.90;;;;;;5072218;28;20048;-63
2022/04/15 03:10:21;;;;;;;8.07;5.75;;;8.30;99.90;;;;;;5072011;28;20055;-63
2022/04/15 03:12:47;;;;;;;7.05;5.97;;;8.30;99.90;;;;;;5072105;28;20086;-63
2022/04/15 03:15:13;;;;;;;10.15;6.03;;;8.30;99.90;;;;;;5070687;28;20048;-61
2022/04/15 03:17:39;;;;;;;8.45;5.45;;;8.20;99.90;;;;;;5070787;28;20048;-61
2022/04/15 03:20:06;;;;;;;7.40;5.78;;;8.20;99.90;;;;;;5071567;28;20145;-61
2022/04/15 03:22:41;;;;;;;8.88;5.78;;;8.20;99.90;;;;;;5071839;28;20048;-61
2022/04/15 03:25:10;;;;;;;8.60;6.15;;;8.10;99.90;;;;;;5070327;28;20078;-60
2022/04/15 03:27:35;;;;;;;6.80;5.47;;;8.10;99.90;;;;;;5071903;28;20052;-62
2022/04/15 03:30:02;;;;;;;7.18;5.78;;;8.00;99.90;;;;;;5071310;28;20490;-65
2022/04/15 03:32:28;;;;;;;9.35;5.97;;;8.00;99.90;;;;;;5071415;28;20064;-61
2022/04/15 03:34:58;;;;;;;7.78;5.53;;;7.90;99.90;;;;;;5071329;28;20486;-61
2022/04/15 03:37:24;;;;;;;7.53;5.10;;;7.80;99.90;;;;;;5071380;28;20167;-61
2022/04/15 03:39:52;;;;;;;5.82;4.82;;;7.70;99.90;;;;;;5071595;28;20041;-61
2022/04/15 03:42:18;;;;;;;5.78;4.65;;;7.70;99.90;;;;;;5069830;28;20051;-62
2022/04/15 03:44:43;;;;;;;5.97;4.70;;;7.70;99.90;;;;;;5071430;28;20106;-61
2022/04/15 03:47:09;;;;;;;6.75;4.88;;;7.80;99.90;;;;;;5070881;28;20049;-62
2022/04/15 03:49:35;;;;;;;5.97;4.80;;;7.80;99.90;;;;;;5071411;28;20052;-62
2022/04/15 03:52:01;;;;;;;8.68;4.65;;;7.90;99.90;;;;;;5071367;28;20127;-68
2022/04/15 03:54:27;;;;;;;6.32;4.75;;;7.90;99.90;;;;;;5071219;28;20446;-62
2022/04/15 03:56:53;;;;;;;7.78;4.72;;;7.90;99.90;;;;;;5071522;28;20046;-61
2022/04/15 03:59:18;;;;;;;7.05;4.15;;;7.90;99.90;;;;;;5069714;28;20048;-63
2022/04/15 04:01:45;;;;;;;5.45;3.85;;;8.00;99.90;;;;;;5070296;28;20084;-62
2022/04/15 04:04:10;;;;;;;3.85;3.05;;;7.90;99.90;;;;;;5052824;28;20044;-61
2022/04/15 04:06:36;;;;;;;6.00;2.83;;;7.90;99.90;;;;;;5071297;28;20048;-61
2022/04/15 04:09:02;;;;;;;5.78;2.60;;;7.90;99.90;;;;;;5071419;28;20335;-61
2022/04/15 04:11:28;;;;;;;5.85;3.22;;;7.90;99.90;;;;;;5053017;28;20048;-61
2022/04/15 04:13:53;;;;;;;3.95;2.88;;;7.90;99.90;;;;;;5070065;28;20051;-61
2022/04/15 04:16:19;;;;;;;5.43;3.08;;;7.90;99.90;;;;;;5070887;28;20127;-62
2022/04/15 04:18:46;;;;;;;5.35;2.97;;;7.90;99.90;;;;;;5052930;28;20044;-61
2022/04/15 04:21:12;;;;;;;5.32;3.30;;;7.90;99.90;;;;;;5069188;28;20059;-62
2022/04/15 04:23:38;;;;;;;6.82;3.28;;;7.90;99.90;;;;;;5069961;28;20052;-61
2022/04/15 04:26:05;;;;;;;5.30;3.60;;;7.90;99.90;;;;;;5070965;28;20045;-63
2022/04/15 04:28:34;;;;;;;5.30;3.88;;;7.90;99.90;;;;;;5070483;28;20045;-62
2022/04/15 04:31:00;;;;;;;8.23;4.07;;;7.80;99.90;;;;;;5071115;28;20051;-61
2022/04/15 04:33:25;;;;;;;7.30;4.25;;;7.70;99.90;;;;;;5070127;28;20422;-63
2022/04/15 04:35:51;;;;;;;5.45;4.00;;;7.80;99.90;;;;;;5070852;28;20063;-62
2022/04/15 04:38:19;;;;;;;6.22;4.00;;;7.80;99.90;;;;;;5069074;28;20492;-62
2022/04/15 04:40:46;;;;;;;6.13;4.28;;;7.70;99.90;;;;;;5069535;28;20060;-61
2022/04/15 04:43:12;;;;;;;5.45;3.38;;;7.80;99.90;;;;;;5052686;28;20053;-65
2022/04/15 04:45:38;;;;;;;5.57;4.07;;;7.70;99.90;;;;;;5070910;28;20057;-63
2022/04/15 04:48:05;;;;;;;6.35;3.90;;;7.70;99.90;;;;;;5069771;28;20048;-62
2022/04/15 04:50:31;;;;;;;6.90;3.95;;;7.70;99.90;;;;;;5070346;28;20041;-63
2022/04/15 04:52:58;;;;;;;5.15;3.95;;;7.80;99.90;;;;;;5070838;28;20083;-62
2022/04/15 04:55:24;;;;;;;5.03;3.28;;;7.70;99.90;;;;;;5069201;28;20084;-63
2022/04/15 04:57:50;;;;;;;7.25;4.25;;;7.70;99.90;;;;;;5070614;28;20082;-63
2022/04/15 05:00:18;;;;;;;8.15;3.13;;;7.70;99.90;;;;;;5072818;28;20052;-64
2022/04/15 05:02:44;;;;;;;6.65;3.58;;;7.70;99.90;;;;;;5056806;28;20110;-64
2022/04/15 05:05:11;;;;;;;6.25;3.83;;;7.60;99.90;;;;;;5074564;28;20044;-62
2022/04/15 05:07:37;;;;;;;8.45;5.05;;;7.60;99.90;;;;;;5056199;28;20048;-66
2022/04/15 05:10:05;;;;;;;7.38;4.45;;;7.70;99.90;;;;;;5072894;28;20541;-65
2022/04/15 05:12:31;;;;;;;8.05;5.03;;;7.70;99.90;;;;;;5073821;28;20174;-62
2022/04/15 05:14:57;;;;;;;5.60;4.53;;;7.70;99.90;;;;;;5073018;28;20557;-62
2022/04/15 05:17:22;;;;;;;6.13;5.03;;;7.70;99.90;;;;;;5073748;28;20390;-63
2022/04/15 05:19:48;;;;;;;5.82;4.63;;;7.70;99.90;;;;;;5073749;28;20192;-61
2022/04/15 05:22:14;;;;;;;7.57;4.95;;;7.70;99.90;;;;;;5073936;28;20049;-67
2022/04/15 05:24:40;;;;;;;9.43;4.85;;;7.70;99.90;;;;;;5073887;28;20064;-62
2022/04/15 05:27:06;;;;;;;7.70;4.88;;;7.70;99.90;;;;;;5074052;28;20158;-61
2022/04/15 05:29:33;;;;;;;7.60;5.63;;;7.70;99.90;;;;;;5073603;28;20048;-60
2022/04/15 05:31:59;;;;;;;10.20;6.05;;;7.70;99.90;;;;;;5074090;28;20068;-61
2022/04/15 05:34:24;;;;;;;8.32;6.32;;;7.70;99.90;;;;;;5073514;28;20045;-63
2022/04/15 05:36:50;;;;;;;9.48;5.60;;;7.70;99.90;;;;;;5072823;28;20052;-62
2022/04/15 05:39:16;;;;;;;8.80;6.43;;;7.80;99.90;;;;;;5071992;28;20486;-67
2022/04/15 05:41:42;;;;;;;9.82;6.13;;;7.70;99.90;;;;;;5073792;28;20116;-62
2022/04/15 05:44:08;;;;;;;9.43;6.22;;;7.80;99.90;;;;;;5073800;28;20488;-61
2022/04/15 05:46:37;;;;;;;8.32;6.30;;;7.80;99.90;;;;;;5073285;28;20051;-62
2022/04/15 05:49:05;;;;;;;8.77;6.18;;;7.80;99.90;;;;;;5056219;28;20041;-62
2022/04/15 05:51:31;;;;;;;7.82;5.75;;;7.80;99.90;;;;;;5055212;28;20040;-63
2022/04/15 05:53:56;;;;;;;9.95;6.28;;;7.90;99.90;;;;;;5073780;28;20555;-62
2022/04/15 05:56:22;;;;;;;8.43;6.05;;;7.90;99.90;;;;;;5073279;28;20127;-62
2022/04/15 05:58:48;;;;;;;10.80;6.18;;;7.90;99.90;;;;;;5072337;28;20425;-61
2022/04/15 06:01:13;;;;;;;8.63;7.00;;;7.90;99.90;;;;;;5055752;28;20444;-62
2022/04/15 06:03:39;;;;;;;9.65;6.35;;;7.90;99.90;;;;;;5054921;28;20072;-63
2022/04/15 06:06:05;;;;;;;8.68;5.65;;;7.90;99.90;;;;;;5073314;28;20057;-62
2022/04/15 06:08:31;;;;;;;8.90;6.35;;;8.00;99.90;;;;;;5072325;28;20045;-62
2022/04/15 06:10:58;;;;;;;13.82;7.90;;;8.00;99.90;;;;;;5054608;28;20071;-63
2022/04/15 06:13:25;;;;;;;10.73;7.45;;;8.00;99.90;;;;;;5054998;28;20066;-62
2022/04/15 06:15:53;;;;;;;12.77;8.50;;;8.10;99.90;;;;;;5073265;28;20051;-63
2022/04/15 06:18:20;;;;;;;12.35;8.57;;;8.10;99.90;;;;;;5073012;28;20049;-63
2022/04/15 06:20:47;;;;;;;12.82;9.13;;;8.10;99.90;;;;;;5072687;28;20060;-61
2022/04/15 06:23:13;;;;;;;18.35;10.55;;;8.10;99.90;;;;;;5073205;28;20083;-61
2022/04/15 06:25:39;;;;;;;18.63;12.00;;;8.10;99.90;;;;;;5072735;28;20409;-61
2022/04/15 06:28:05;;;;;;;19.92;12.63;;;8.20;99.90;;;;;;5072862;28;20060;-63
2022/04/15 06:30:31;;;;;;;21.55;11.55;;;8.10;99.90;;;;;;5072481;28;20040;-61
2022/04/15 06:32:57;;;;;;;18.45;11.35;;;8.20;99.90;;;;;;5071473;28;20088;-61
2022/04/15 06:35:22;;;;;;;24.27;12.80;;;8.20;99.90;;;;;;5071575;28;20049;-62
2022/04/15 06:37:48;;;;;;;15.10;10.48;;;8.20;99.90;;;;;;5071298;28;20131;-62
2022/04/15 06:40:14;;;;;;;17.52;11.10;;;8.20;99.90;;;;;;5072800;28;20101;-63
2022/04/15 06:42:40;;;;;;;17.23;10.63;;;8.30;99.90;;;;;;5072318;28;20051;-61
2022/04/15 06:45:06;;;;;;;18.88;10.48;;;8.30;99.90;;;;;;5071648;28;20498;-61
2022/04/15 06:47:32;;;;;;;18.75;10.07;;;8.30;99.90;;;;;;5054631;28;20387;-61
2022/04/15 06:49:57;;;;;;;15.30;9.70;;;8.30;99.90;;;;;;5072717;28;20123;-61
2022/04/15 06:52:23;;;;;;;14.52;9.88;;;8.40;99.90;;;;;;5071966;28;20045;-63
2022/04/15 06:54:49;;;;;;;15.35;9.32;;;8.40;99.90;;;;;;5072100;28;20048;-61
2022/04/15 06:57:15;;;;;;;15.90;9.10;;;8.40;99.90;;;;;;5072227;28;20053;-61
2022/04/15 06:59:40;;;;;;;17.25;9.45;;;8.40;99.90;;;;;;5071640;28;20127;-61
2022/04/15 07:02:07;;;;;;;17.90;9.75;;;8.40;99.90;;;;;;5071463;28;20457;-63
2022/04/15 07:04:34;;;;;;;16.65;9.80;;;8.40;99.90;;;;;;5070696;28;20125;-63
2022/04/15 07:07:00;;;;;;;15.23;8.77;;;8.50;99.90;;;;;;5072339;28;20098;-64
2022/04/15 07:09:26;;;;;;;12.02;8.02;;;8.50;99.90;;;;;;5072139;28;20083;-62
2022/04/15 07:11:53;;;;;;;11.13;7.65;;;8.60;99.90;;;;;;5071573;28;20052;-63
2022/04/15 07:14:19;;;;;;;13.90;8.50;;;8.70;99.90;;;;;;5072213;28;20045;-62
2022/04/15 07:16:45;;;;;;;12.98;7.55;;;8.80;99.90;;;;;;5070602;28;20083;-62
2022/04/15 07:19:11;;;;;;;13.20;7.00;;;8.80;99.90;;;;;;5070248;28;20083;-61
2022/04/15 07:21:41;;;;;;;12.13;7.22;;;8.90;99.90;;;;;;5069690;28;20124;-62
2022/04/15 07:24:07;;;;;;;12.25;6.68;;;8.90;99.90;;;;;;5071685;28;20132;-62
2022/04/15 07:26:34;;;;;;;11.48;6.28;;;9.00;99.90;;;;;;5071355;28;20055;-67
2022/04/15 07:29:00;;;;;;;11.60;6.80;;;9.00;99.90;;;;;;5070663;28;20048;-63
2022/04/15 07:31:25;;;;;;;14.45;6.68;;;9.00;99.90;;;;;;5053634;28;20097;-63
2022/04/15 07:33:51;;;;;;;16.15;6.63;;;8.90;99.90;;;;;;5053709;28;20131;-63
2022/04/15 07:39:06;;;;;;;12.05;6.00;;;8.90;99.90;;;;;;5070250;28;20052;-62
2022/04/15 07:41:37;;;;;;;14.57;6.43;;;8.90;99.90;;;;;;5071628;28;20041;-63
2022/04/15 07:44:09;;;;;;;12.30;6.80;;;8.90;99.90;;;;;;5071242;28;20588;-64
2022/04/15 07:46:36;;;;;;;15.35;7.15;;;8.90;99.90;;;;;;5069707;28;20053;-69
2022/04/15 07:49:03;;;;;;;12.02;6.65;;;8.80;99.90;;;;;;5071425;28;20161;-63
2022/04/15 07:51:30;;;;;;;10.57;6.15;;;8.90;99.90;;;;;;5069672;28;20045;-63
2022/04/15 07:53:56;;;;;;;12.77;6.63;;;8.90;99.90;;;;;;5070486;28;20485;-62
2022/04/15 07:56:22;;;;;;;13.05;6.97;;;8.90;99.90;;;;;;5069878;28;20186;-63
2022/04/15 07:58:50;;;;;;;13.25;6.85;;;9.00;99.90;;;;;;5070426;28;20040;-62
2022/04/15 08:01:16;;;;;;;15.80;7.80;;;9.00;99.90;;;;;;5070931;28;20048;-63
2022/04/15 08:03:43;;;;;;;8.65;5.72;;;9.20;99.90;;;;;;5070444;28;20048;-62
2022/04/15 08:06:09;;;;;;;15.43;6.88;;;9.20;99.90;;;;;;5069584;28;20040;-61
2022/04/15 08:08:35;;;;;;;11.93;5.82;;;9.30;99.90;;;;;;5069422;28;20512;-63
2022/04/15 08:11:01;;;;;;;10.48;5.93;;;9.50;99.90;;;;;;5070232;28;20102;-62
2022/04/15 08:13:28;;;;;;;10.82;5.40;;;10.00;99.90;;;;;;5070262;28;20048;-63
2022/04/15 08:15:54;;;;;;;10.13;5.88;;;10.30;99.90;;;;;;5068927;28;20118;-64
2022/04/15 08:18:24;;;;;;;9.18;5.20;;;10.40;99.90;;;;;;5070726;28;20044;-63
2022/04/15 08:20:52;;;;;;;11.77;5.78;;;10.70;99.90;;;;;;5068873;28;20054;-64
2022/04/15 08:23:18;;;;;;;9.45;5.25;;;10.80;99.90;;;;;;5070910;28;20091;-61
2022/04/15 08:25:45;;;;;;;11.40;5.40;;;10.90;99.90;;;;;;5070358;28;20448;-61
2022/04/15 08:28:11;;;;;;;12.80;5.80;;;10.70;99.90;;;;;;5070019;28;20151;-63
2022/04/15 08:30:37;;;;;;;10.63;5.88;;;10.60;99.90;;;;;;5070287;28;20489;-62
2022/04/15 08:33:08;;;;;;;11.82;5.60;;;10.50;99.90;;;;;;5067213;28;20450;-61
2022/04/15 08:35:34;;;;;;;13.93;5.22;;;10.40;99.90;;;;;;5069348;28;20053;-62
2022/04/15 08:38:00;;;;;;;11.43;4.90;;;10.30;99.90;;;;;;5069020;28;20076;-62
2022/04/15 08:40:27;;;;;;;8.57;4.85;;;10.50;99.90;;;;;;5069445;28;20080;-61
2022/04/15 08:42:53;;;;;;;8.02;5.32;;;11.50;99.90;;;;;;5070211;28;20048;-60
2022/04/15 08:45:25;;;;;;;8.75;4.88;;;12.60;99.90;;;;;;5070599;28;20050;-61
2022/04/15 08:47:57;;;;;;;10.77;5.03;;;13.40;99.90;;;;;;5069304;28;20049;-62
2022/04/15 08:50:24;;;;;;;8.32;4.53;;;13.60;99.90;;;;;;5052672;28;20045;-62
2022/04/15 08:52:59;;;;;;;7.60;4.88;;;13.40;99.90;;;;;;5070123;28;20056;-62
2022/04/15 08:55:27;;;;;;;8.75;4.50;;;12.90;99.90;;;;;;5070651;28;20057;-61
2022/04/15 08:57:55;;;;;;;8.18;4.50;;;12.90;99.90;;;;;;5069050;28;20405;-62
2022/04/15 09:00:21;;;;;;;8.23;4.57;;;13.10;99.90;;;;;;5069330;28;20066;-63
2022/04/15 09:02:49;;;;;;;7.55;4.38;;;13.70;99.90;;;;;;5052314;28;20489;-66
2022/04/15 09:05:26;;;;;;;6.50;4.45;;;14.20;99.90;;;;;;5069629;28;20254;-61
2022/04/15 09:08:08;;;;;;;7.65;4.32;;;14.90;99.90;;;;;;5069869;28;20037;-63
2022/04/15 09:10:35;;;;;;;9.57;4.45;;;15.20;99.90;;;;;;5070669;28;20171;-62
2022/04/15 09:13:03;;;;;;;14.40;5.20;;;14.70;99.90;;;;;;5070433;28;20044;-62
2022/04/15 09:15:30;;;;;;;7.75;5.00;;;14.10;99.90;;;;;;5070603;28;20052;-61
2022/04/15 09:17:59;;;;;;;9.40;4.90;;;13.50;99.90;;;;;;5069055;28;20055;-62
2022/04/15 09:20:28;;;;;;;10.75;5.03;;;13.00;99.90;;;;;;5070169;28;20049;-62
2022/04/15 09:22:55;;;;;;;8.30;4.63;;;12.60;99.90;;;;;;5068737;28;20044;-61
2022/04/15 09:25:25;;;;;;;8.73;5.30;;;12.50;99.90;;;;;;5068785;28;20509;-62
2022/04/15 09:27:56;;;;;;;7.05;4.55;;;12.60;99.90;;;;;;5069967;28;20442;-61
2022/04/15 09:30:36;;;;;;;10.35;5.05;;;12.40;99.90;;;;;;5052408;28;20061;-60
2022/04/15 09:33:03;;;;;;;9.23;5.43;;;12.30;99.90;;;;;;5069491;28;20063;-61
2022/04/15 09:35:29;;;;;;;10.57;6.05;;;12.20;99.90;;;;;;5070184;28;20064;-62
2022/04/15 09:38:03;;;;;;;8.07;5.72;;;12.00;99.90;;;;;;5069709;28;20354;-61
2022/04/15 09:40:31;;;;;;;12.32;5.45;;;11.90;99.90;;;;;;5070369;28;20094;-62
2022/04/15 09:42:58;;;;;;;10.05;6.25;;;11.90;99.90;;;;;;5069774;28;20055;-61
2022/04/15 09:45:34;;;;;;;10.18;5.55;;;11.70;99.90;;;;;;5073686;28;20393;-63
2022/04/15 09:48:03;;;;;;;9.70;5.40;;;11.60;99.90;;;;;;5073601;28;20049;-61
2022/04/15 09:50:34;;;;;;;11.38;5.43;;;11.60;99.90;;;;;;5073638;28;20080;-62
2022/04/15 09:53:18;;;;;;;10.38;6.10;;;11.50;99.90;;;;;;5073332;28;20136;-61
2022/04/15 09:55:50;;;;;;;12.80;5.93;;;11.40;99.90;;;;;;5073748;28;20052;-63
2022/04/15 09:58:17;;;;;;;8.63;6.03;;;11.40;99.90;;;;;;5072838;28;20037;-61
2022/04/15 10:00:48;;;;;;;8.13;5.55;;;11.40;99.90;;;;;;5070573;28;20064;-61
2022/04/15 10:03:26;;;;;;;9.93;5.82;;;11.30;99.90;;;;;;5071515;28;20132;-61
2022/04/15 10:05:54;;;;;;;11.20;6.03;;;11.30;99.90;;;;;;5073167;28;20056;-61
2022/04/15 10:08:21;;;;;;;11.23;5.45;;;11.20;99.90;;;;;;5071960;28;20045;-61
2022/04/15 10:10:47;;;;;;;8.80;5.57;;;11.20;99.90;;;;;;5072685;28;20045;-63
2022/04/15 10:13:14;;;;;;;8.98;4.97;;;11.30;99.90;;;;;;5071376;28;20393;-62
2022/04/15 10:15:40;;;;;;;6.65;4.70;;;11.30;99.90;;;;;;5073049;28;20501;-61
2022/04/15 10:18:08;;;;;;;7.20;5.07;;;11.30;99.90;;;;;;5071460;28;20482;-61
2022/04/15 10:20:37;;;;;;;7.50;4.80;;;11.30;99.90;;;;;;5071047;28;20124;-61
2022/04/15 10:23:08;;;;;;;9.68;5.22;;;11.30;99.90;;;;;;5072306;28;20413;-61
2022/04/15 10:25:36;;;;;;;9.00;5.80;;;11.40;99.90;;;;;;5071815;28;20040;-61
2022/04/15 10:28:37;;;;;;;8.40;5.22;;;11.30;99.90;;;;;;5071468;28;20052;-62
2022/04/15 10:31:11;;;;;;;9.18;6.05;;;11.20;99.90;;;;;;5070985;28;20050;-61
2022/04/15 10:33:41;;;;;;;7.20;5.13;;;11.20;99.90;;;;;;5072916;28;20437;-61
2022/04/15 10:36:16;;;;;;;9.70;5.72;;;11.20;99.90;;;;;;5072809;28;20075;-61
2022/04/15 10:39:03;;;;;;;9.48;5.55;;;11.20;99.90;;;;;;5071566;28;20045;-61
2022/04/15 10:41:51;;;;;;;12.25;5.72;;;11.20;99.90;;;;;;5072364;28;20406;-61
2022/04/15 10:44:39;;;;;;;11.30;5.20;;;11.10;99.90;;;;;;5072162;28;20098;-60
2022/04/15 10:47:17;;;;;;;9.68;6.22;;;11.10;99.90;;;;;;5072181;28;20048;-62
2022/04/15 10:50:03;;;;;;;10.90;5.80;;;11.00;99.90;;;;;;5072160;28;20224;-62
2022/04/15 10:52:30;;;;;;;10.75;5.47;;;11.10;99.90;;;;;;5071565;28;20174;-61
2022/04/15 10:55:00;;;;;;;9.05;5.38;;;11.00;99.90;;;;;;5071615;28;20615;-61
2022/04/15 10:57:43;;;;;;;6.75;5.50;;;11.00;99.90;;;;;;5071572;28;20052;-64
2022/04/15 11:03:29;;;;;;;9.88;5.82;;;10.90;99.90;;;;;;5071682;28;20052;-61
2022/04/15 11:06:00;;;;;;;8.32;5.53;;;10.80;99.90;;;;;;5053952;28;20051;-64
2022/04/15 11:08:27;;;;;;;9.27;5.95;;;10.80;99.90;;;;;;5071639;28;20049;-63
2022/04/15 11:10:55;;;;;;;20.92;6.45;;;10.90;99.90;;;;;;5070271;28;20114;-62
2022/04/15 11:13:29;;;;;;;9.48;6.53;;;11.10;99.90;;;;;;5070903;28;20553;-63
2022/04/15 11:16:06;;;;;;;10.25;5.72;;;11.30;99.90;;;;;;5071729;28;20052;-62
2022/04/15 11:18:50;;;;;;;10.35;5.70;;;11.20;99.90;;;;;;5070228;28;20094;-62
2022/04/15 11:21:37;;;;;;;8.25;5.22;;;11.10;99.90;;;;;;5071019;28;20049;-62
2022/04/15 11:24:11;;;;;;;8.50;5.82;;;11.10;99.90;;;;;;5071778;28;20040;-61
2022/04/15 11:26:38;;;;;;;;;;;11.10;99.90;;;;;;5071943;28;20520;-61
2022/04/15 11:29:05;;;;;;;10.15;5.35;;;11.10;99.90;;;;;;5070841;28;20299;-62
2022/04/15 11:31:36;;;;;;;10.63;5.57;;;11.20;99.90;;;;;;5070382;28;20140;-61
2022/04/15 11:34:10;;;;;;;10.10;5.10;;;11.20;99.90;;;;;;5069828;28;20505;-61
2022/04/15 11:36:39;;;;;;;10.18;5.40;;;11.20;99.90;;;;;;5071521;28;20421;-63
2022/04/15 11:39:07;;;;;;;9.52;5.82;;;11.20;99.90;;;;;;5070008;28;20059;-64
2022/04/15 11:41:33;;;;;;;9.80;5.93;;;11.10;99.90;;;;;;5070632;28;20040;-63
2022/04/15 11:44:00;;;;;;;11.00;5.93;;;11.10;99.90;;;;;;5070032;28;20547;-61
2022/04/15 11:46:36;;;;;;;9.70;6.15;;;11.10;99.90;;;;;;5069656;28;20461;-62
2022/04/15 11:49:12;;;;;;;10.27;5.95;;;11.10;99.90;;;;;;5070351;28;20044;-61
2022/04/15 11:51:37;;;;;;;9.50;5.97;;;11.10;99.90;;;;;;5071095;28;20054;-62
2022/04/15 11:54:03;;;;;;;16.67;7.03;;;11.10;99.90;;;;;;5070350;28;20127;-62
2022/04/15 11:56:29;;;;;;;9.57;6.30;;;11.10;99.90;;;;;;5070519;28;20132;-63
2022/04/15 11:58:58;;;;;;;13.25;6.65;;;11.00;99.90;;;;;;5070152;28;20052;-62
2022/04/15 12:01:32;;;;;;;18.83;7.32;;;11.10;99.90;;;;;;5069282;28;20040;-61
2022/04/15 12:03:59;;;;;;;11.98;6.00;;;11.10;99.90;;;;;;5069953;28;20450;-63
2022/04/15 12:06:31;;;;;;;9.65;5.65;;;11.20;99.90;;;;;;5070827;28;20056;-65
2022/04/15 12:08:57;;;;;;;15.45;7.28;;;11.10;99.90;;;;;;5070794;28;20405;-67
2022/04/15 12:11:25;;;;;;;10.07;6.18;;;11.10;99.90;;;;;;5069695;28;20041;-62
2022/04/15 12:14:01;;;;;;;10.70;6.50;;;11.00;99.90;;;;;;5070774;28;20066;-64
2022/04/15 12:16:32;;;;;;;12.30;6.45;;;11.00;99.90;;;;;;5070439;28;20076;-63
2022/04/15 12:18:59;;;;;;;10.77;6.30;;;11.00;99.90;;;;;;5069382;28;20040;-61
2022/04/15 12:21:28;;;;;;;9.60;6.30;;;10.90;99.90;;;;;;5068756;28;20052;-63
2022/04/15 12:24:20;;;;;;;8.35;5.13;;;10.90;99.90;;;;;;5070838;28;20055;-60
2022/04/15 12:26:48;;;;;;;10.15;5.50;;;10.80;99.90;;;;;;5070552;28;20060;-62
2022/04/15 12:32:25;;;;;;;11.55;6.53;;;10.60;99.90;;;;;;5069863;28;20162;-62
2022/04/15 12:35:11;;;;;;;9.98;5.80;;;10.60;99.90;;;;;;5053367;28;20143;-63
2022/04/15 12:37:53;;;;;;;12.18;6.25;;;10.60;99.90;;;;;;5069319;28;20086;-62
2022/04/15 12:40:19;;;;;;;11.52;6.07;;;10.60;99.90;;;;;;5070236;28;20178;-64
2022/04/15 12:42:47;;;;;;;12.88;6.75;;;10.60;99.90;;;;;;5070046;28;20067;-62
2022/04/15 12:45:19;;;;;;;10.68;5.93;;;10.50;99.90;;;;;;5052507;28;20140;-62
2022/04/15 12:48:01;;;;;;;9.75;6.20;;;10.60;99.90;;;;;;5070613;28;20045;-61
2022/04/15 12:50:35;;;;;;;13.07;6.63;;;10.60;99.90;;;;;;5070042;28;20048;-61
2022/04/15 12:53:15;;;;;;;11.65;6.45;;;10.60;99.90;;;;;;5070736;28;20049;-63
2022/04/15 12:55:41;;;;;;;10.60;5.68;;;10.70;99.90;;;;;;5068924;28;20565;-60
2022/04/15 12:58:33;;;;;;;10.98;6.80;;;10.70;99.90;;;;;;5069495;28;20037;-63
2022/04/15 13:00:59;;;;;;;8.85;6.40;;;10.80;99.90;;;;;;5066195;28;20052;-61
2022/04/15 13:03:36;;;;;;;11.77;6.07;;;10.80;99.90;;;;;;5070179;28;20104;-61